createdAt,value
2022-08-02T00:00:11.771Z,2.33
2022-08-02T00:02:38.462Z,2.05
2022-08-02T00:05:06.246Z,2.20
2022-08-02T00:07:36.465Z,2.20
2022-08-02T00:10:09.085Z,2.10
2022-08-02T00:12:35.928Z,2.42
2022-08-02T00:15:03.490Z,1.85
2022-08-02T00:17:30.135Z,2.10
2022-08-02T00:19:56.864Z,2.30
2022-08-02T00:22:23.588Z,2.20
2022-08-02T00:24:50.268Z,2.20
2022-08-02T00:27:16.958Z,2.10
2022-08-02T00:29:53.282Z,1.75
2022-08-02T00:32:20.867Z,2.17
2022-08-02T00:34:47.680Z,2.08
2022-08-02T00:37:14.411Z,1.95
2022-08-02T00:39:42.461Z,2.10
2022-08-02T00:42:10.134Z,1.92
2022-08-02T00:44:37.237Z,2.70
2022-08-02T00:47:04.369Z,1.70
2022-08-02T00:49:33.077Z,2.45
2022-08-02T00:52:00.352Z,2.08
2022-08-02T00:54:27.207Z,2.00
2022-08-02T00:56:53.941Z,2.08
2022-08-02T00:59:20.642Z,2.42
2022-08-02T01:01:55.873Z,2.20
2022-08-02T01:04:26.891Z,1.52
2022-08-02T01:06:57.461Z,1.65
2022-08-02T01:09:24.165Z,1.45
2022-08-02T01:11:50.810Z,1.27
2022-08-02T01:14:18.631Z,1.70
2022-08-02T01:17:06.593Z,1.40
2022-08-02T01:19:55.544Z,1.50
2022-08-02T01:23:02.531Z,1.23
2022-08-02T01:25:39.760Z,1.30
2022-08-02T01:28:12.305Z,1.17
2022-08-02T01:30:41.388Z,1.33
2022-08-02T01:33:09.818Z,1.55
2022-08-02T01:35:51.241Z,1.40
2022-08-02T01:38:48.915Z,1.55
2022-08-02T01:41:20.089Z,1.13
2022-08-02T01:43:49.518Z,1.42
2022-08-02T01:46:17.678Z,1.70
2022-08-02T01:48:46.958Z,1.40
2022-08-02T01:51:18.411Z,1.52
2022-08-02T01:53:49.976Z,1.90
2022-08-02T01:56:17.391Z,1.83
2022-08-02T01:58:45.488Z,2.10
2022-08-02T02:01:15.292Z,3.53
2022-08-02T02:03:48.040Z,2.90
2022-08-02T02:06:16.555Z,2.00
2022-08-02T02:08:44.613Z,1.83
2022-08-02T02:12:11.896Z,1.60
2022-08-02T02:14:00.680Z,1.60
2022-08-02T02:16:28.690Z,1.65
2022-08-02T02:18:55.663Z,1.77
2022-08-02T02:21:22.498Z,1.25
2022-08-02T02:23:50.944Z,1.65
2022-08-02T02:26:28.461Z,1.48
2022-08-02T02:29:02.698Z,1.70
2022-08-02T02:31:35.055Z,1.63
2022-08-02T02:34:11.771Z,1.50
2022-08-02T02:36:41.556Z,1.85
2022-08-02T02:39:13.572Z,1.42
2022-08-02T02:41:42.399Z,1.80
2022-08-02T02:44:14.081Z,1.95
2022-08-02T02:46:41.789Z,2.00
2022-08-02T02:49:11.168Z,1.80
2022-08-02T02:51:40.659Z,2.17
2022-08-02T02:54:32.389Z,1.37
2022-08-02T02:56:58.950Z,1.75
2022-08-02T02:59:26.212Z,1.95
2022-08-02T03:01:57.104Z,1.73
2022-08-02T03:04:26.983Z,1.58
2022-08-02T03:06:53.949Z,1.65
2022-08-02T03:09:20.782Z,1.73
2022-08-02T03:11:48.348Z,1.42
2022-08-02T03:14:15.454Z,1.40
2022-08-02T03:16:50.697Z,1.63
2022-08-02T03:19:18.673Z,1.60
2022-08-02T03:21:46.719Z,1.58
2022-08-02T03:24:13.900Z,1.70
2022-08-02T03:26:41.211Z,1.50
2022-08-02T03:29:10.971Z,1.60
2022-08-02T03:31:41.591Z,1.67
2022-08-02T03:34:08.523Z,1.55
2022-08-02T03:36:36.315Z,1.60
2022-08-02T03:39:04.238Z,1.77
2022-08-02T03:41:31.865Z,2.15
2022-08-02T03:43:59.283Z,1.20
2022-08-02T03:46:26.665Z,1.90
2022-08-02T03:48:55.619Z,1.45
2022-08-02T03:51:22.728Z,1.38
2022-08-02T03:53:49.814Z,1.33
2022-08-02T03:56:16.903Z,1.65
2022-08-02T03:58:48.858Z,1.67
2022-08-02T04:01:16.190Z,1.77
2022-08-02T04:03:43.049Z,1.50
2022-08-02T04:06:09.856Z,1.50
2022-08-02T04:08:38.310Z,1.42
2022-08-02T04:11:24.999Z,1.20
2022-08-02T04:13:52.038Z,1.50
2022-08-02T04:16:29.068Z,1.70
2022-08-02T04:19:02.784Z,1.58
2022-08-02T04:21:48.406Z,1.55
2022-08-02T04:24:18.537Z,1.50
2022-08-02T04:26:48.919Z,1.30
2022-08-02T04:29:18.145Z,1.60
2022-08-02T04:31:45.549Z,1.60
2022-08-02T04:34:15.393Z,1.48
2022-08-02T04:36:43.336Z,1.38
2022-08-02T04:39:10.621Z,1.40
2022-08-02T04:41:43.956Z,1.67
2022-08-02T04:44:11.972Z,1.80
2022-08-02T04:46:39.858Z,1.25
2022-08-02T04:49:06.973Z,1.50
2022-08-02T04:51:38.180Z,1.77
2022-08-02T04:54:09.334Z,1.63
2022-08-02T04:56:39.962Z,1.48
2022-08-02T04:59:07.308Z,1.50
2022-08-02T05:01:35.756Z,1.42
2022-08-02T05:04:03.011Z,1.70
2022-08-02T05:06:29.714Z,1.48
2022-08-02T05:08:56.420Z,1.33
2022-08-02T05:11:34.303Z,1.67
2022-08-02T05:14:04.191Z,1.70
2022-08-02T05:16:32.163Z,1.65
2022-08-02T05:19:01.029Z,2.00
2022-08-02T05:21:28.207Z,2.00
2022-08-02T05:23:55.018Z,1.50
2022-08-02T05:26:21.778Z,1.50
2022-08-02T05:28:48.459Z,1.52
2022-08-02T05:31:15.163Z,1.90
2022-08-02T05:33:42.000Z,2.10
2022-08-02T05:36:09.548Z,1.67
2022-08-02T05:38:37.428Z,1.63
2022-08-02T05:41:05.337Z,1.45
2022-08-02T05:43:32.508Z,1.45
2022-08-02T05:45:59.172Z,1.65
2022-08-02T05:48:31.161Z,1.90
2022-08-02T05:51:04.703Z,2.00
2022-08-02T05:53:40.133Z,2.22
2022-08-02T05:56:17.797Z,1.65
2022-08-02T05:58:51.386Z,1.88
2022-08-02T06:01:33.078Z,2.03
2022-08-02T06:04:05.200Z,2.22
2022-08-02T06:06:33.500Z,2.42
2022-08-02T06:09:09.679Z,2.78
2022-08-02T06:12:01.672Z,2.90
2022-08-02T06:14:31.897Z,2.45
2022-08-02T06:16:59.274Z,3.15
2022-08-02T06:19:26.901Z,3.03
2022-08-02T06:22:34.858Z,2.95
2022-08-02T06:24:50.393Z,2.88
2022-08-02T06:27:17.679Z,2.50
2022-08-02T06:29:44.664Z,3.25
2022-08-02T06:32:11.683Z,2.72
2022-08-02T06:34:40.109Z,3.25
2022-08-02T06:37:20.934Z,2.83
2022-08-02T06:40:01.588Z,2.92
2022-08-02T06:42:41.797Z,2.65
2022-08-02T06:45:08.996Z,2.72
2022-08-02T06:47:35.827Z,2.60
2022-08-02T06:50:02.687Z,2.70
2022-08-02T06:52:31.206Z,3.13
2022-08-02T06:55:03.576Z,3.28
2022-08-02T06:57:31.298Z,3.25
2022-08-02T07:00:00.989Z,2.30
2022-08-02T07:02:28.562Z,3.22
2022-08-02T07:04:55.299Z,3.45
2022-08-02T07:07:22.021Z,3.60
2022-08-02T07:10:00.057Z,2.70
2022-08-02T07:12:30.553Z,2.77
2022-08-02T07:14:59.114Z,2.90
2022-08-02T07:17:25.874Z,3.03
2022-08-02T07:19:52.591Z,3.05
2022-08-02T07:22:22.967Z,2.90
2022-08-02T07:27:16.733Z,3.38
2022-08-02T07:29:46.601Z,3.75
2022-08-02T07:32:22.697Z,4.18
2022-08-02T07:34:53.144Z,3.30
2022-08-02T07:37:53.306Z,3.00
2022-08-02T07:40:15.275Z,3.47
2022-08-02T07:42:47.077Z,2.88
2022-08-02T07:45:14.528Z,2.78
2022-08-02T07:47:42.190Z,2.78
2022-08-02T07:50:09.995Z,2.85
2022-08-02T07:52:36.791Z,2.85
2022-08-02T07:55:04.917Z,2.47
2022-08-02T07:57:32.039Z,2.95
2022-08-02T07:59:59.833Z,2.72
2022-08-02T08:02:26.556Z,2.67
2022-08-02T08:04:53.685Z,2.40
2022-08-02T08:07:20.458Z,2.20
2022-08-02T08:09:48.260Z,2.38
2022-08-02T08:12:16.673Z,2.10
2022-08-02T08:14:44.513Z,2.40
2022-08-02T08:17:11.721Z,2.25
2022-08-02T08:19:52.149Z,1.88
2022-08-02T08:22:20.840Z,2.30
2022-08-02T08:24:48.765Z,2.20
2022-08-02T08:27:16.311Z,1.98
2022-08-02T08:29:43.687Z,2.20
2022-08-02T08:32:15.716Z,1.90
2022-08-02T08:34:44.196Z,1.70
2022-08-02T08:37:17.128Z,1.65
2022-08-02T08:39:58.415Z,1.83
2022-08-02T08:42:30.636Z,1.88
2022-08-02T08:44:58.622Z,1.85
2022-08-02T08:47:34.327Z,1.77
2022-08-02T08:50:20.081Z,1.83
2022-08-02T08:52:57.859Z,1.45
2022-08-02T08:55:27.530Z,2.00
2022-08-02T08:57:55.726Z,1.70
2022-08-02T09:00:22.465Z,2.20
2022-08-02T09:02:49.949Z,2.15
2022-08-02T09:05:17.789Z,1.85
2022-08-02T09:07:51.135Z,1.58
2022-08-02T09:10:44.116Z,1.70
2022-08-02T09:13:38.082Z,1.70
2022-08-02T09:16:12.209Z,1.52
2022-08-02T09:18:45.895Z,2.00
2022-08-02T09:21:15.084Z,1.50
2022-08-02T09:23:44.965Z,1.70
2022-08-02T09:26:20.623Z,1.58
2022-08-02T09:28:53.055Z,2.65
2022-08-02T09:31:23.085Z,1.70
2022-08-02T09:33:54.955Z,1.95
2022-08-02T09:36:22.942Z,1.52
2022-08-02T09:39:04.791Z,1.48
2022-08-02T09:41:34.433Z,1.88
2022-08-02T09:44:06.202Z,1.52
2022-08-02T09:46:39.744Z,1.88
2022-08-02T09:49:10.142Z,1.70
2022-08-02T09:51:49.711Z,2.00
2022-08-02T09:54:18.705Z,1.98
2022-08-02T09:56:56.343Z,1.90
2022-08-02T09:59:25.160Z,1.48
2022-08-02T10:02:01.847Z,1.70
2022-08-02T10:04:31.753Z,2.03
2022-08-02T10:06:59.795Z,2.10
2022-08-02T10:09:28.940Z,2.05
2022-08-02T10:11:56.887Z,1.45
2022-08-02T10:14:23.990Z,1.30
2022-08-02T10:16:53.244Z,2.10
2022-08-02T10:19:59.795Z,2.00
2022-08-02T10:22:11.093Z,1.65
2022-08-02T10:24:41.782Z,2.45
2022-08-02T10:27:20.087Z,1.90
2022-08-02T10:29:54.004Z,1.52
2022-08-02T10:32:29.301Z,2.00
2022-08-02T10:35:26.758Z,1.55
2022-08-02T10:38:01.773Z,1.70
2022-08-02T10:40:44.722Z,1.67
2022-08-02T10:43:12.190Z,1.77
2022-08-02T10:45:39.527Z,1.73
2022-08-02T10:48:11.766Z,1.60
2022-08-02T10:50:47.237Z,1.45
2022-08-02T10:53:27.249Z,2.00
2022-08-02T10:56:03.817Z,2.03
2022-08-02T10:58:32.557Z,1.75
2022-08-02T11:01:38.717Z,1.73
2022-08-02T11:04:10.566Z,1.98
2022-08-02T11:07:06.478Z,1.80
2022-08-02T11:09:34.731Z,1.58
2022-08-02T11:12:06.635Z,2.08
2022-08-02T11:14:38.837Z,1.95
2022-08-02T11:17:07.719Z,1.50
2022-08-02T11:19:35.103Z,2.03
2022-08-02T11:22:06.870Z,1.80
2022-08-02T11:24:35.309Z,1.88
2022-08-02T11:27:04.517Z,1.77
2022-08-02T11:29:42.575Z,1.73
2022-08-02T11:32:31.811Z,1.50
2022-08-02T11:34:59.141Z,1.50
2022-08-02T11:37:29.591Z,1.50
2022-08-02T11:39:56.371Z,1.58
2022-08-02T11:42:37.911Z,1.75
2022-08-02T11:45:06.573Z,1.27
2022-08-02T11:47:33.389Z,1.60
2022-08-02T11:50:10.615Z,1.30
2022-08-02T11:52:38.319Z,1.67
2022-08-02T11:55:06.925Z,1.13
2022-08-02T11:58:02.885Z,1.40
2022-08-02T12:00:22.175Z,1.10
2022-08-02T12:02:53.783Z,1.10
2022-08-02T12:05:44.782Z,1.30
2022-08-02T12:08:10.585Z,0.82
2022-08-02T12:10:49.895Z,1.40
2022-08-02T12:13:16.738Z,1.20
2022-08-02T12:15:46.117Z,1.50
2022-08-02T12:18:38.816Z,1.20
2022-08-02T12:21:22.718Z,0.80
2022-08-02T12:23:58.872Z,1.20
2022-08-02T12:26:29.072Z,1.30
2022-08-02T12:28:57.735Z,1.23
2022-08-02T12:31:56.314Z,1.00
2022-08-02T12:34:31.564Z,1.15
2022-08-02T12:37:07.044Z,0.90
2022-08-02T12:39:36.694Z,0.90
2022-08-02T12:42:04.793Z,1.17
2022-08-02T12:44:31.598Z,0.90
2022-08-02T12:47:00.359Z,0.73
2022-08-02T12:49:27.352Z,0.70
2022-08-02T12:51:59.969Z,0.45
2022-08-02T12:54:32.530Z,0.68
2022-08-02T12:57:11.594Z,0.70
2022-08-02T12:59:40.403Z,0.73
2022-08-02T13:02:12.073Z,0.65
2022-08-02T13:04:39.553Z,0.80
2022-08-02T13:07:06.415Z,0.50
2022-08-02T13:09:38.708Z,0.70
2022-08-02T13:12:07.083Z,0.77
2022-08-02T13:14:39.913Z,0.70
2022-08-02T13:17:09.671Z,0.70
2022-08-02T13:19:36.974Z,0.80
2022-08-02T13:22:04.315Z,0.65
2022-08-02T13:24:39.850Z,1.02
2022-08-02T13:27:08.099Z,0.90
2022-08-02T13:29:36.418Z,0.60
2022-08-02T13:32:03.174Z,0.85
2022-08-02T13:34:29.969Z,0.52
2022-08-02T13:36:56.627Z,0.73
2022-08-02T13:39:23.287Z,0.47
2022-08-02T13:41:49.958Z,0.68
2022-08-02T13:44:16.638Z,0.70
2022-08-02T13:46:45.124Z,0.60
2022-08-02T13:49:18.288Z,0.60
2022-08-02T13:51:46.253Z,0.50
2022-08-02T13:54:12.927Z,0.50
2022-08-02T13:56:39.601Z,0.85
2022-08-02T13:59:54.354Z,0.95
2022-08-02T14:01:55.098Z,0.85
2022-08-02T14:04:22.466Z,0.68
2022-08-02T14:06:49.250Z,0.90
2022-08-02T14:09:17.166Z,0.60
2022-08-02T14:11:44.753Z,0.80
2022-08-02T14:14:16.433Z,0.63
2022-08-02T14:16:44.686Z,0.50
2022-08-02T14:19:16.287Z,0.60
2022-08-02T14:21:46.066Z,0.60
2022-08-02T14:24:19.299Z,0.40
2022-08-02T14:26:47.350Z,0.50
2022-08-02T14:29:15.319Z,0.55
2022-08-02T14:31:44.593Z,0.47
2022-08-02T14:34:12.988Z,0.47
2022-08-02T14:36:39.711Z,0.68
2022-08-02T14:39:06.718Z,1.10
2022-08-02T14:41:58.154Z,0.68
2022-08-02T14:44:23.327Z,0.70
2022-08-02T14:46:51.699Z,0.30
2022-08-02T14:49:25.561Z,0.55
2022-08-02T14:51:54.482Z,0.55
2022-08-02T14:54:28.261Z,0.40
2022-08-02T14:56:58.448Z,0.57
2022-08-02T14:59:25.218Z,0.57
2022-08-02T15:01:52.103Z,0.60
2022-08-02T15:04:18.822Z,0.68
2022-08-02T15:06:45.680Z,0.60
2022-08-02T15:09:13.580Z,0.63
2022-08-02T15:11:47.773Z,0.70
2022-08-02T15:14:22.156Z,0.50
2022-08-02T15:16:57.113Z,0.63
2022-08-02T15:19:25.958Z,0.70
2022-08-02T15:22:15.745Z,0.70
2022-08-02T15:24:44.133Z,0.60
2022-08-02T15:27:13.583Z,0.60
2022-08-02T15:29:41.032Z,0.65
2022-08-02T15:32:08.037Z,0.60
2022-08-02T15:34:34.911Z,0.50
2022-08-02T15:37:01.665Z,0.70
2022-08-02T15:39:28.398Z,0.68
2022-08-02T15:41:55.146Z,0.52
2022-08-02T15:44:22.041Z,0.77
2022-08-02T15:46:48.752Z,0.65
2022-08-02T15:49:15.437Z,0.60
2022-08-02T15:51:44.898Z,0.73
2022-08-02T15:54:11.575Z,0.88
2022-08-02T15:56:38.266Z,0.60
2022-08-02T15:59:05.007Z,0.40
2022-08-02T16:01:37.358Z,0.75
2022-08-02T16:04:06.464Z,0.77
2022-08-02T16:06:34.361Z,0.95
2022-08-02T16:09:01.328Z,0.60
2022-08-02T16:11:28.066Z,0.50
2022-08-02T16:13:55.057Z,0.55
2022-08-02T16:16:32.976Z,0.70
2022-08-02T16:19:29.940Z,0.80
2022-08-02T16:21:48.667Z,0.85
2022-08-02T16:24:15.345Z,0.63
2022-08-02T16:26:42.570Z,0.82
2022-08-02T16:29:09.476Z,0.60
2022-08-02T16:31:40.182Z,0.65
2022-08-02T16:34:09.028Z,0.77
2022-08-02T16:36:36.000Z,0.88
2022-08-02T16:39:03.006Z,0.80
2022-08-02T16:41:50.690Z,0.90
2022-08-02T16:44:17.136Z,0.60
2022-08-02T16:46:45.068Z,0.80
2022-08-02T16:50:05.627Z,0.52
2022-08-02T16:51:58.900Z,0.73
2022-08-02T16:54:25.561Z,0.70
2022-08-02T16:56:53.378Z,0.45
2022-08-02T16:59:20.085Z,0.57
2022-08-02T17:02:03.949Z,0.70
2022-08-02T17:04:39.023Z,0.77
2022-08-02T17:07:11.191Z,0.60
2022-08-02T17:10:03.410Z,0.93
2022-08-02T17:12:31.898Z,0.60
2022-08-02T17:14:58.790Z,0.70
2022-08-02T17:17:34.125Z,0.77
2022-08-02T17:20:01.878Z,0.85
2022-08-02T17:22:28.944Z,0.60
2022-08-02T17:24:56.058Z,0.50
2022-08-02T17:27:22.861Z,0.80
2022-08-02T17:29:49.725Z,0.60
2022-08-02T17:32:18.477Z,0.70
2022-08-02T17:34:49.100Z,0.70
2022-08-02T17:37:26.761Z,0.60
2022-08-02T17:39:55.469Z,0.70
2022-08-02T17:42:23.185Z,0.50
2022-08-02T17:44:51.583Z,0.77
2022-08-02T17:47:18.290Z,0.60
2022-08-02T17:49:48.507Z,0.70
2022-08-02T17:52:51.145Z,0.70
2022-08-02T17:57:55.565Z,0.70
2022-08-02T18:00:20.051Z,0.70
2022-08-02T18:02:50.516Z,0.80
2022-08-02T18:05:21.697Z,0.68
2022-08-02T18:07:52.086Z,0.90
2022-08-02T18:10:22.550Z,0.88
2022-08-02T18:12:50.043Z,1.02
2022-08-02T18:15:17.733Z,0.98
2022-08-02T18:17:47.071Z,1.00
2022-08-02T18:20:13.982Z,1.00
2022-08-02T18:22:42.968Z,1.00
2022-08-02T18:25:11.843Z,1.17
2022-08-02T18:27:58.578Z,1.13
2022-08-02T18:30:28.515Z,1.10
2022-08-02T18:33:56.892Z,1.23
2022-08-02T18:35:43.623Z,1.15
2022-08-02T18:38:11.849Z,1.20
2022-08-02T18:40:39.039Z,1.25
2022-08-02T18:43:07.011Z,1.27
2022-08-02T18:45:43.308Z,1.10
2022-08-02T18:48:22.019Z,1.30
2022-08-02T18:50:49.155Z,1.20
2022-08-02T18:53:39.092Z,1.08
2022-08-02T18:56:07.124Z,0.90
2022-08-02T18:58:35.114Z,0.95
2022-08-02T19:01:14.659Z,0.93
2022-08-02T19:03:49.177Z,0.85
2022-08-02T19:06:19.653Z,1.30
2022-08-02T19:09:06.067Z,0.73
2022-08-02T19:11:35.320Z,1.10
2022-08-02T19:14:02.589Z,1.00
2022-08-02T19:16:36.603Z,1.10
2022-08-02T19:19:05.039Z,1.30
2022-08-02T19:22:18.050Z,1.60
2022-08-02T19:24:18.985Z,1.33
2022-08-02T19:26:51.822Z,2.00
2022-08-02T19:29:42.320Z,1.90
2022-08-02T19:32:39.195Z,1.38
2022-08-02T19:34:53.798Z,1.52
2022-08-02T19:37:20.667Z,1.17
2022-08-02T19:39:47.706Z,1.27
2022-08-02T19:42:14.871Z,1.17
2022-08-02T19:44:44.974Z,1.17
2022-08-02T19:47:12.709Z,1.17
2022-08-02T19:49:48.978Z,0.90
2022-08-02T19:52:21.600Z,1.20
2022-08-02T19:54:55.561Z,1.15
2022-08-02T19:57:25.121Z,0.90
2022-08-02T19:59:52.802Z,0.90
2022-08-02T20:02:21.161Z,1.50
2022-08-02T20:04:50.085Z,1.30
2022-08-02T20:07:50.019Z,1.00
2022-08-02T20:10:11.298Z,1.30
2022-08-02T20:12:39.781Z,1.20
2022-08-02T20:15:15.228Z,1.00
2022-08-02T20:17:47.235Z,1.00
2022-08-02T20:20:14.771Z,0.95
2022-08-02T20:23:00.661Z,1.08
2022-08-02T20:25:28.907Z,0.90
2022-08-02T20:27:55.924Z,0.90
2022-08-02T20:30:25.578Z,1.00
2022-08-02T20:32:58.895Z,1.15
2022-08-02T20:35:41.402Z,0.90
2022-08-02T20:38:11.941Z,0.80
2022-08-02T20:40:38.783Z,0.90
2022-08-02T20:43:05.513Z,2.40
2022-08-02T20:45:34.530Z,1.50
2022-08-02T20:48:02.559Z,1.25
2022-08-02T20:53:34.805Z,0.80
2022-08-02T20:56:21.453Z,1.25
2022-08-02T20:58:48.122Z,0.95
2022-08-02T21:01:21.238Z,1.10
2022-08-02T21:03:58.389Z,1.05
2022-08-02T21:06:25.576Z,1.00
2022-08-02T21:08:55.376Z,0.80
2022-08-02T21:11:25.442Z,1.10
2022-08-02T21:14:07.541Z,1.10
2022-08-02T21:16:36.670Z,1.00
2022-08-02T21:19:09.517Z,0.80
2022-08-02T21:21:36.920Z,0.90
2022-08-02T21:24:04.115Z,1.27
2022-08-02T21:26:32.299Z,1.05
2022-08-02T21:29:03.169Z,0.90
2022-08-02T21:31:33.476Z,0.90
2022-08-02T21:34:02.850Z,0.82
2022-08-02T21:36:32.623Z,0.80
2022-08-02T21:39:04.481Z,1.30
2022-08-02T21:41:38.438Z,1.42
2022-08-02T21:44:06.416Z,1.30
2022-08-02T21:46:33.545Z,1.10
2022-08-02T21:49:01.932Z,0.77
2022-08-02T21:51:29.137Z,0.90
2022-08-02T21:54:18.342Z,1.23
2022-08-02T21:56:48.488Z,0.80
2022-08-02T21:59:17.474Z,0.90
2022-08-02T22:01:52.755Z,0.80
2022-08-02T22:04:20.829Z,1.05
2022-08-02T22:06:48.971Z,1.20
2022-08-02T22:09:17.729Z,1.10
2022-08-02T22:12:06.584Z,1.08
2022-08-02T22:14:39.651Z,1.30
2022-08-02T22:17:08.988Z,1.17
2022-08-02T22:19:40.069Z,0.98
2022-08-02T22:22:20.809Z,0.90
2022-08-02T22:24:55.944Z,1.30
2022-08-02T22:27:23.907Z,1.35
2022-08-02T22:30:11.091Z,0.90
2022-08-02T22:32:56.388Z,0.90
2022-08-02T22:35:23.160Z,0.93
2022-08-02T22:38:16.389Z,1.27
2022-08-02T22:40:36.565Z,0.75
2022-08-02T22:43:03.217Z,1.42
2022-08-02T22:45:30.575Z,1.30
2022-08-02T22:48:03.568Z,1.15
2022-08-02T22:50:30.317Z,1.20
2022-08-02T22:52:57.353Z,1.00
2022-08-02T22:55:24.361Z,0.93
2022-08-02T22:57:59.157Z,0.70
2022-08-02T22:58:56.350Z,1.25
2022-08-02T23:00:26.281Z,0.93
2022-08-02T23:02:53.002Z,1.00
2022-08-02T23:05:20.869Z,0.90
2022-08-02T23:07:47.620Z,1.00
2022-08-02T23:10:14.429Z,0.88
2022-08-02T23:12:41.110Z,0.70
2022-08-02T23:15:08.449Z,0.90
2022-08-02T23:17:53.609Z,1.08
2022-08-02T23:20:20.299Z,0.95
2022-08-02T23:22:46.954Z,1.00
2022-08-02T23:25:14.577Z,0.77
2022-08-02T23:27:50.532Z,0.88
2022-08-02T23:30:20.982Z,0.95
2022-08-02T23:32:47.712Z,1.08
2022-08-02T23:35:16.508Z,0.93
2022-08-02T23:38:00.456Z,1.17
2022-08-02T23:40:39.866Z,0.73
2022-08-02T23:43:13.510Z,1.42
2022-08-02T23:45:41.529Z,1.05
2022-08-02T23:48:08.191Z,0.98
2022-08-02T23:50:34.878Z,1.05
2022-08-02T23:53:01.576Z,1.65
2022-08-02T23:55:28.259Z,1.10
2022-08-02T23:57:54.906Z,0.77
